Airport View

Enter AWOS ICAO identifier for current METAR.

ex. KFNL

PAOM 261053Z AUTO 10009KT 10SM -RA FEW035 OVC085 14/12 A2997

26 Jun 2019 11:52

Frequency: 119.925

Phone: 907-443-4818

Other Area AWOS: PATE - PAWM - PFKT - PAGL

TAF PAOM 260539Z 2606/2706 09008KT P6SM OVC060 FM261000 09011G16KT 6SM -SHRA BR BKN035 OVC050